Observations for STANSTED AIRPORT, United Kingdom (EGSS)

EGSS 112320Z AUTO 12007KT 090V150 9999 SCT024 05/03 Q1023   
EGSS 112250Z AUTO 12007KT 9999 NCD 05/03 Q1023  
EGSS 112220Z AUTO 12007KT 9999 NCD 05/03 Q1023  
EGSS 112150Z AUTO 12007KT 9999 FEW020 04/03 Q1023   
EGSS 112120Z AUTO 13006KT 100V180 9999 SCT020 05/03 Q1023   
EGSS 112050Z AUTO 12007KT 080V180 9000 NCD 05/03 Q1023  
EGSS 112020Z AUTO 13008KT 9999 NCD 04/03 Q1023  
EGSS 111950Z AUTO 11007KT 8000 NCD 04/03 Q1024  
EGSS 111920Z AUTO 12006KT 100V170 9999 NCD 04/03 Q1024  
EGSS 111850Z AUTO 12007KT 9999 NCD 04/03 Q1024  
EGSS 111820Z AUTO 12008KT 8000 SCT013 05/03 Q1024   
EGSS 111750Z AUTO 12007KT 7000 NCD 05/04 Q1024  
EGSS 111720Z AUTO 12007KT 100V160 8000 NCD 05/04 Q1023  
EGSS 111650Z AUTO 12007KT 6000 NCD 05/04 Q1023  
EGSS 111620Z AUTO 11006KT 080V140 7000 NCD 05/04 Q1023  
EGSS 111550Z AUTO 12004KT 7000 NCD 05/04 Q1023  
EGSS 111520Z AUTO 13005KT 100V170 6000 NCD 06/05 Q1023  
EGSS 111450Z AUTO 14005KT 6000 NCD 06/05 Q1024  
EGSS 111420Z AUTO 14005KT 6000 NCD 07/05 Q1024  
EGSS 111350Z AUTO 14006KT 8000 NCD 07/05 Q1024  
EGSS 111320Z AUTO 14007KT 8000 NCD 07/05 Q1024  
EGSS 111250Z AUTO 13006KT 090V160 9000 SCT006 07/05 Q1025   
EGSS 111220Z AUTO 13005KT 090V200 8000 NCD 07/05 Q1025  
EGSS 111150Z AUTO 13005KT 8000 NCD 06/05 Q1025  
EGSS 111120Z AUTO 12003KT 8000 NCD 06/05 Q1025  
EGSS 111050Z AUTO VRB03KT 8000 NCD 06/06 Q1025  
EGSS 111020Z AUTO 16004KT 140V210 7000 NCD 05/05 Q1026  
EGSS 110950Z AUTO VRB02KT 4500 BR NCD 04/04 Q1026   
EGSS 110920Z AUTO 23002KT 2900 BR NCD 02/02 Q1026   
EGSS 110850Z 20002KT 2500 BCFG FEW015 01/01 Q1026   
EGSS 110820Z VRB01KT 1000 R22/0400 BCFG SCT014 01/01 Q1025  
EGSS 110750Z VRB02KT 1000 R22/P1500 BCFG BKN011 01/01 Q1025 
EGSS 110720Z 20002KT 1000 R22/P1500 BCFG FEW001 BKN015 02/02 Q1026  
EGSS 110650Z AUTO VRB03KT 0200 R22/0700 BCFG VV/// 02/02 Q1026  
EGSS 110620Z AUTO VRB03KT 0100 R22/0450 BCFG BKN001 BKN010 01/01 Q1026  
EGSS 110550Z AUTO 20001KT 0450 R22/0700 BCFG BKN012 BKN018 01/01 Q1026  
EGSS 110520Z AUTO VRB01KT 0250 R22/0600 BCFG FEW014 02/01 Q1026 
EGSS 110450Z AUTO VRB01KT 0250 BCFG FEW011 03/02 Q1026  
EGSS 110420Z AUTO 14001KT 0200 R22/0650 BCFG SCT010 02/02 Q1026 
EGSS 110350Z AUTO 23001KT 3300 R22/1300 BR SCT009 03/02 Q1026   
EGSS 110320Z 23001KT 0800 BCFG FEW011 03/03 Q1026   
EGSS 110250Z AUTO 23001KT 0200 BCFG FEW010 03/02 Q1026  
EGSS 110220Z 27002KT 9999 NSC 03/03 Q1026   
EGSS 110150Z 28001KT 9999 SCT013 04/03 Q1026
EGSS 110120Z AUTO 30001KT 9999 SCT014 04/03 Q1027   
EGSS 110050Z AUTO 27002KT 9999 NCD 05/04 Q1027  
EGSS 110020Z AUTO 20003KT 9999 SCT013 05/04 Q1027   
EGSS 102350Z AUTO VRB01KT 9999 BKN015 BKN024 OVC029 05/03 Q1027 
EGSS 102320Z AUTO 05001KT 9999 SCT016 BKN025 05/03 Q1027
EGSS 102250Z AUTO 24001KT 9999 FEW017 SCT023 BKN030 05/03 Q1027